QFA55 PAYA-PAFA
Flight info
| Callsign | QFA55 |
|---|---|
| Flight time | 1h 6m |
| Altitude | 34000 |
| Route | YAK J507 TOVAD Q811 OYELI RDFLG HRDNG4 |
| Aircraft | B738/M-SDE2E3FGHIRWXY/LB1 |
Departure
| Time | 2026-04-28 10:50 |
|---|---|
| Airport | Yakutat Airport (PAYA) |
Arrival
| Time | 2026-04-28 11:57 |
|---|---|
| Airport | Fairbanks International Airport (PAFA) |
| Time | Latitude | Longitude | Altitude | Speed | Heading |
|---|---|---|---|---|---|
| 2026-04-28 10:34 | 59.51003 | -139.66583 | 41 ft | 0 kts | 40° |
| 2026-04-28 10:40 | 59.51002 | -139.66586 | 42 ft | 7 kts | 40° |
| 2026-04-28 10:40 | 59.50986 | -139.66611 | 41 ft | 0 kts | 40° |
| 2026-04-28 10:42 | 59.50991 | -139.66603 | 41 ft | 2 kts | 40° |
| 2026-04-28 10:42 | 59.51008 | -139.66575 | 41 ft | 4 kts | 40° |
| 2026-04-28 10:42 | 59.51019 | -139.66556 | 41 ft | 0 kts | 43° |
| 2026-04-28 10:43 | 59.51002 | -139.66588 | 42 ft | 7 kts | 43° |
| 2026-04-28 10:43 | 59.50977 | -139.66634 | 42 ft | 0 kts | 43° |
| 2026-04-28 10:43 | 59.50981 | -139.66618 | 41 ft | 1 kts | 77° |
| 2026-04-28 10:43 | 59.50971 | -139.66585 | 41 ft | 1 kts | 143° |
| 2026-04-28 10:44 | 59.50951 | -139.66556 | 41 ft | 7 kts | 143° |
| 2026-04-28 10:44 | 59.50918 | -139.66481 | 41 ft | 9 kts | 107° |
| 2026-04-28 10:44 | 59.50933 | -139.66341 | 41 ft | 9 kts | 52° |
| 2026-04-28 10:44 | 59.50940 | -139.66324 | 41 ft | 1 kts | 50° |
| 2026-04-28 10:45 | 59.50959 | -139.66283 | 41 ft | 5 kts | 46° |
| 2026-04-28 10:45 | 59.51005 | -139.66235 | 41 ft | 10 kts | 357° |
| 2026-04-28 10:45 | 59.51073 | -139.66314 | 41 ft | 11 kts | 315° |
| 2026-04-28 10:45 | 59.51127 | -139.66384 | 41 ft | 8 kts | 325° |
| 2026-04-28 10:46 | 59.51117 | -139.66421 | 41 ft | 4 kts | 148° |
| 2026-04-28 10:46 | 59.51106 | -139.66388 | 41 ft | 0 kts | 135° |
| 2026-04-28 10:48 | 59.51105 | -139.66387 | 41 ft | 0 kts | 135° |
| 2026-04-28 10:48 | 59.51105 | -139.66386 | 41 ft | 0 kts | 135° |
| 2026-04-28 10:49 | 59.51074 | -139.66326 | 41 ft | 22 kts | 135° |
| 2026-04-28 10:49 | 59.50818 | -139.65818 | 42 ft | 82 kts | 135° |
| 2026-04-28 10:49 | 59.50284 | -139.64771 | 42 ft | 133 kts | 135° |
| 2026-04-28 10:50 | 59.49544 | -139.63327 | 213 ft | 156 kts | 134° |
| 2026-04-28 10:50 | 59.48764 | -139.61817 | 773 ft | 158 kts | 134° |
| 2026-04-28 10:50 | 59.47976 | -139.60281 | 1324 ft | 163 kts | 134° |
| 2026-04-28 10:50 | 59.47120 | -139.58687 | 1742 ft | 175 kts | 142° |
| 2026-04-28 10:51 | 59.45999 | -139.57621 | 2140 ft | 186 kts | 168° |
| 2026-04-28 10:51 | 59.44667 | -139.57784 | 2428 ft | 203 kts | 200° |
| 2026-04-28 10:51 | 59.43510 | -139.59403 | 2894 ft | 209 kts | 232° |
| 2026-04-28 10:51 | 59.42957 | -139.62032 | 3470 ft | 213 kts | 264° |
| 2026-04-28 10:52 | 59.43095 | -139.64891 | 4192 ft | 208 kts | 287° |
| 2026-04-28 10:52 | 59.43766 | -139.67391 | 4830 ft | 213 kts | 312° |
| 2026-04-28 10:52 | 59.45054 | -139.69031 | 5136 ft | 231 kts | 342° |
| 2026-04-28 10:52 | 59.46678 | -139.69287 | 5555 ft | 245 kts | 11° |
| 2026-04-28 10:53 | 59.48299 | -139.68000 | 5990 ft | 256 kts | 31° |
| 2026-04-28 10:53 | 59.49818 | -139.66250 | 6790 ft | 254 kts | 25° |
| 2026-04-28 10:53 | 59.51549 | -139.65419 | 7288 ft | 262 kts | 359° |
| 2026-04-28 10:53 | 59.53399 | -139.65981 | 7722 ft | 274 kts | 342° |
| 2026-04-28 10:54 | 59.55227 | -139.67137 | 8306 ft | 279 kts | 341° |
| 2026-04-28 10:54 | 59.57083 | -139.68333 | 8930 ft | 283 kts | 341° |
| 2026-04-28 10:54 | 59.58973 | -139.69495 | 9577 ft | 286 kts | 342° |
| 2026-04-28 10:54 | 59.60888 | -139.70622 | 10186 ft | 292 kts | 342° |
| 2026-04-28 10:55 | 59.62894 | -139.71791 | 10437 ft | 309 kts | 342° |
| 2026-04-28 10:55 | 59.65007 | -139.73032 | 10692 ft | 325 kts | 341° |
| 2026-04-28 10:55 | 59.67222 | -139.74346 | 10976 ft | 339 kts | 341° |
| 2026-04-28 10:55 | 59.69507 | -139.75706 | 11527 ft | 345 kts | 341° |
| 2026-04-28 10:56 | 59.71824 | -139.77086 | 12173 ft | 349 kts | 340° |
| 2026-04-28 10:56 | 59.74160 | -139.78478 | 12817 ft | 353 kts | 340° |
| 2026-04-28 10:56 | 59.76529 | -139.79891 | 13451 ft | 357 kts | 340° |
| 2026-04-28 10:56 | 59.78926 | -139.81324 | 14085 ft | 362 kts | 340° |
| 2026-04-28 10:57 | 59.81359 | -139.82781 | 14726 ft | 367 kts | 340° |
| 2026-04-28 10:57 | 59.83822 | -139.84259 | 15370 ft | 372 kts | 339° |
| 2026-04-28 10:57 | 59.86317 | -139.85758 | 16013 ft | 377 kts | 339° |
| 2026-04-28 10:57 | 59.88848 | -139.87280 | 16652 ft | 382 kts | 339° |
| 2026-04-28 10:58 | 59.91408 | -139.88822 | 17283 ft | 387 kts | 338° |
| 2026-04-28 10:58 | 59.94007 | -139.90391 | 17904 ft | 392 kts | 338° |
| 2026-04-28 10:58 | 59.96632 | -139.91978 | 18525 ft | 397 kts | 338° |
| 2026-04-28 10:58 | 59.99293 | -139.93588 | 19146 ft | 401 kts | 338° |
| 2026-04-28 10:59 | 60.01974 | -139.95213 | 19752 ft | 405 kts | 338° |
| 2026-04-28 10:59 | 60.04684 | -139.96858 | 20347 ft | 409 kts | 338° |
| 2026-04-28 10:59 | 60.07419 | -139.98523 | 20929 ft | 412 kts | 338° |
| 2026-04-28 10:59 | 60.10173 | -140.00202 | 21494 ft | 416 kts | 338° |
| 2026-04-28 11:00 | 60.12954 | -140.01900 | 22033 ft | 420 kts | 338° |
| 2026-04-28 11:00 | 60.15763 | -140.03620 | 22564 ft | 423 kts | 338° |
| 2026-04-28 11:00 | 60.18595 | -140.05356 | 23073 ft | 426 kts | 338° |
| 2026-04-28 11:00 | 60.21444 | -140.07104 | 23571 ft | 430 kts | 338° |
| 2026-04-28 11:01 | 60.24314 | -140.08868 | 24047 ft | 433 kts | 338° |
| 2026-04-28 11:01 | 60.27207 | -140.10651 | 24517 ft | 436 kts | 338° |
| 2026-04-28 11:01 | 60.30118 | -140.12449 | 24970 ft | 439 kts | 338° |
| 2026-04-28 11:01 | 60.33052 | -140.14266 | 25398 ft | 442 kts | 338° |
| 2026-04-28 11:02 | 60.36005 | -140.16097 | 25821 ft | 445 kts | 338° |
| 2026-04-28 11:02 | 60.38971 | -140.17938 | 26222 ft | 448 kts | 338° |
| 2026-04-28 11:02 | 60.41960 | -140.19798 | 26602 ft | 450 kts | 338° |
| 2026-04-28 11:02 | 60.44965 | -140.21672 | 26978 ft | 453 kts | 338° |
| 2026-04-28 11:03 | 60.47985 | -140.23558 | 27341 ft | 455 kts | 338° |
| 2026-04-28 11:03 | 60.51020 | -140.25458 | 27688 ft | 458 kts | 338° |
| 2026-04-28 11:03 | 60.54072 | -140.27372 | 28012 ft | 460 kts | 338° |
| 2026-04-28 11:03 | 60.57142 | -140.29302 | 28323 ft | 463 kts | 338° |
| 2026-04-28 11:04 | 60.60229 | -140.31246 | 28508 ft | 468 kts | 338° |
| 2026-04-28 11:04 | 60.66538 | -140.35237 | 28753 ft | 479 kts | 338° |
| 2026-04-28 11:04 | 60.69730 | -140.37254 | 29002 ft | 480 kts | 338° |
| 2026-04-28 11:05 | 60.72921 | -140.39275 | 29277 ft | 480 kts | 338° |
| 2026-04-28 11:05 | 60.76112 | -140.41302 | 29568 ft | 480 kts | 338° |
| 2026-04-28 11:05 | 60.79305 | -140.43339 | 29847 ft | 480 kts | 338° |
| 2026-04-28 11:05 | 60.82493 | -140.45379 | 30119 ft | 480 kts | 338° |
| 2026-04-28 11:06 | 60.85680 | -140.47420 | 30397 ft | 480 kts | 338° |
| 2026-04-28 11:06 | 60.88866 | -140.49464 | 30671 ft | 479 kts | 338° |
| 2026-04-28 11:06 | 60.92042 | -140.51504 | 30940 ft | 478 kts | 338° |
| 2026-04-28 11:06 | 60.95216 | -140.53548 | 31213 ft | 477 kts | 338° |
| 2026-04-28 11:07 | 60.98376 | -140.55588 | 31490 ft | 476 kts | 338° |
| 2026-04-28 11:07 | 61.01543 | -140.57638 | 31743 ft | 475 kts | 338° |
| 2026-04-28 11:07 | 61.04695 | -140.59682 | 31983 ft | 475 kts | 337° |
| 2026-04-28 11:07 | 61.07842 | -140.61727 | 32218 ft | 474 kts | 337° |
| 2026-04-28 11:08 | 61.10989 | -140.63775 | 32451 ft | 474 kts | 337° |
| 2026-04-28 11:08 | 61.14132 | -140.65825 | 32683 ft | 473 kts | 337° |
| 2026-04-28 11:08 | 61.17271 | -140.67877 | 32902 ft | 472 kts | 337° |
| 2026-04-28 11:08 | 61.20401 | -140.69927 | 33123 ft | 471 kts | 337° |
| 2026-04-28 11:09 | 61.23526 | -140.71980 | 33326 ft | 471 kts | 337° |
| 2026-04-28 11:09 | 61.26652 | -140.74036 | 33527 ft | 470 kts | 337° |
| 2026-04-28 11:09 | 61.29766 | -140.76089 | 33727 ft | 470 kts | 337° |
| 2026-04-28 11:09 | 61.32881 | -140.78147 | 33904 ft | 470 kts | 337° |
| 2026-04-28 11:10 | 61.36002 | -140.80214 | 33966 ft | 472 kts | 337° |
| 2026-04-28 11:10 | 61.42286 | -140.84389 | 33960 ft | 474 kts | 337° |
| 2026-04-28 11:11 | 61.48564 | -140.88571 | 33950 ft | 472 kts | 337° |
| 2026-04-28 11:11 | 61.53754 | -140.92045 | 33947 ft | 469 kts | 337° |
| 2026-04-28 11:12 | 61.59936 | -140.96347 | 33949 ft | 463 kts | 331° |
| 2026-04-28 11:12 | 61.65340 | -141.03264 | 33951 ft | 453 kts | 319° |
| 2026-04-28 11:13 | 61.70686 | -141.10434 | 33946 ft | 458 kts | 323° |
| 2026-04-28 11:13 | 61.76139 | -141.17455 | 33939 ft | 458 kts | 321° |
| 2026-04-28 11:14 | 61.81458 | -141.24870 | 33933 ft | 458 kts | 321° |
| 2026-04-28 11:14 | 61.86822 | -141.32208 | 33930 ft | 460 kts | 321° |
| 2026-04-28 11:15 | 61.92212 | -141.39516 | 33927 ft | 460 kts | 321° |
| 2026-04-28 11:15 | 61.97575 | -141.46925 | 33924 ft | 460 kts | 321° |
| 2026-04-28 11:16 | 62.02948 | -141.54357 | 33921 ft | 460 kts | 321° |
| 2026-04-28 11:16 | 62.08316 | -141.61787 | 33918 ft | 460 kts | 321° |
| 2026-04-28 11:17 | 62.13678 | -141.69265 | 33916 ft | 460 kts | 321° |
| 2026-04-28 11:17 | 62.19040 | -141.76772 | 33920 ft | 461 kts | 320° |
| 2026-04-28 11:18 | 62.24403 | -141.84303 | 33909 ft | 460 kts | 321° |
| 2026-04-28 11:18 | 62.29754 | -141.91857 | 33905 ft | 460 kts | 320° |
| 2026-04-28 11:19 | 62.35106 | -141.99446 | 33902 ft | 460 kts | 320° |
| 2026-04-28 11:19 | 62.40488 | -142.07109 | 33900 ft | 461 kts | 320° |
| 2026-04-28 11:20 | 62.45836 | -142.14756 | 33905 ft | 461 kts | 320° |
| 2026-04-28 11:20 | 62.51176 | -142.22426 | 33899 ft | 461 kts | 320° |
| 2026-04-28 11:21 | 62.56516 | -142.30129 | 33899 ft | 461 kts | 320° |
| 2026-04-28 11:21 | 62.61844 | -142.37848 | 33897 ft | 460 kts | 320° |
| 2026-04-28 11:22 | 62.67166 | -142.45594 | 33896 ft | 460 kts | 320° |
| 2026-04-28 11:22 | 62.72491 | -142.53378 | 33900 ft | 460 kts | 319° |
| 2026-04-28 11:23 | 62.77807 | -142.61181 | 33896 ft | 460 kts | 319° |
| 2026-04-28 11:23 | 62.83113 | -142.69004 | 33896 ft | 459 kts | 319° |
| 2026-04-28 11:24 | 62.88409 | -142.76852 | 33895 ft | 460 kts | 319° |
| 2026-04-28 11:24 | 62.93701 | -142.84724 | 33896 ft | 460 kts | 319° |
| 2026-04-28 11:25 | 62.99001 | -142.92644 | 33895 ft | 460 kts | 319° |
| 2026-04-28 11:25 | 63.04286 | -143.00579 | 33892 ft | 460 kts | 319° |
| 2026-04-28 11:26 | 63.09572 | -143.08548 | 33891 ft | 460 kts | 319° |
| 2026-04-28 11:26 | 63.14848 | -143.16540 | 33889 ft | 460 kts | 319° |
| 2026-04-28 11:27 | 63.20132 | -143.24581 | 33888 ft | 461 kts | 319° |
| 2026-04-28 11:27 | 63.25413 | -143.32650 | 33888 ft | 461 kts | 319° |
| 2026-04-28 11:28 | 63.30687 | -143.40747 | 33885 ft | 461 kts | 318° |
| 2026-04-28 11:28 | 63.35955 | -143.48871 | 33883 ft | 460 kts | 318° |
| 2026-04-28 11:29 | 63.41215 | -143.57020 | 33881 ft | 460 kts | 318° |
| 2026-04-28 11:29 | 63.46469 | -143.65197 | 33879 ft | 460 kts | 318° |
| 2026-04-28 11:30 | 63.51716 | -143.73402 | 33876 ft | 460 kts | 318° |
| 2026-04-28 11:30 | 63.59306 | -143.86361 | 33881 ft | 448 kts | 306° |
| 2026-04-28 11:31 | 63.63043 | -143.97345 | 33874 ft | 441 kts | 298° |
| 2026-04-28 11:31 | 63.66576 | -144.08628 | 33869 ft | 442 kts | 298° |
| 2026-04-28 11:32 | 63.70146 | -144.20034 | 33865 ft | 442 kts | 298° |
| 2026-04-28 11:32 | 63.73701 | -144.31354 | 33817 ft | 443 kts | 298° |
| 2026-04-28 11:33 | 63.75470 | -144.37033 | 33202 ft | 440 kts | 297° |
| 2026-04-28 11:33 | 63.77219 | -144.42667 | 32650 ft | 434 kts | 297° |
| 2026-04-28 11:33 | 63.78939 | -144.48215 | 32130 ft | 428 kts | 297° |
| 2026-04-28 11:33 | 63.80636 | -144.53707 | 31624 ft | 423 kts | 296° |
| 2026-04-28 11:34 | 63.82309 | -144.59132 | 31125 ft | 418 kts | 296° |
| 2026-04-28 11:34 | 63.83960 | -144.64501 | 30621 ft | 413 kts | 296° |
| 2026-04-28 11:34 | 63.85590 | -144.69814 | 30132 ft | 408 kts | 296° |
| 2026-04-28 11:34 | 63.87196 | -144.75060 | 29643 ft | 403 kts | 295° |
| 2026-04-28 11:35 | 63.88786 | -144.80265 | 29165 ft | 402 kts | 295° |
| 2026-04-28 11:35 | 63.90401 | -144.85611 | 28675 ft | 413 kts | 296° |
| 2026-04-28 11:35 | 63.92025 | -144.90959 | 28181 ft | 409 kts | 296° |
| 2026-04-28 11:35 | 63.93635 | -144.96234 | 27696 ft | 404 kts | 296° |
| 2026-04-28 11:36 | 63.95224 | -145.01454 | 27216 ft | 400 kts | 296° |
| 2026-04-28 11:36 | 63.96790 | -145.06638 | 26741 ft | 395 kts | 296° |
| 2026-04-28 11:36 | 63.98335 | -145.11784 | 26271 ft | 393 kts | 296° |
| 2026-04-28 11:36 | 63.99904 | -145.17053 | 25795 ft | 406 kts | 297° |
| 2026-04-28 11:37 | 64.01490 | -145.22355 | 25307 ft | 402 kts | 298° |
| 2026-04-28 11:37 | 64.03064 | -145.27583 | 24828 ft | 398 kts | 298° |
| 2026-04-28 11:37 | 64.04622 | -145.32775 | 24355 ft | 394 kts | 298° |
| 2026-04-28 11:37 | 64.06157 | -145.37927 | 23887 ft | 391 kts | 298° |
| 2026-04-28 11:38 | 64.07675 | -145.43049 | 23424 ft | 387 kts | 298° |
| 2026-04-28 11:38 | 64.09177 | -145.48129 | 22963 ft | 383 kts | 298° |
| 2026-04-28 11:38 | 64.10663 | -145.53156 | 22508 ft | 380 kts | 298° |
| 2026-04-28 11:38 | 64.12137 | -145.58149 | 22057 ft | 376 kts | 298° |
| 2026-04-28 11:39 | 64.13595 | -145.63096 | 21609 ft | 373 kts | 298° |
| 2026-04-28 11:39 | 64.15036 | -145.68001 | 21166 ft | 369 kts | 298° |
| 2026-04-28 11:39 | 64.16461 | -145.72863 | 20727 ft | 366 kts | 298° |
| 2026-04-28 11:39 | 64.17870 | -145.77683 | 20292 ft | 362 kts | 298° |
| 2026-04-28 11:40 | 64.19263 | -145.82456 | 19862 ft | 358 kts | 298° |
| 2026-04-28 11:40 | 64.20653 | -145.87237 | 19434 ft | 363 kts | 298° |
| 2026-04-28 11:40 | 64.22053 | -145.92063 | 18998 ft | 361 kts | 298° |
| 2026-04-28 11:40 | 64.23442 | -145.96847 | 18567 ft | 359 kts | 298° |
| 2026-04-28 11:41 | 64.24822 | -146.01610 | 18138 ft | 357 kts | 298° |
| 2026-04-28 11:41 | 64.26193 | -146.06356 | 17711 ft | 355 kts | 298° |
| 2026-04-28 11:41 | 64.27550 | -146.11078 | 17287 ft | 353 kts | 299° |
| 2026-04-28 11:41 | 64.28902 | -146.15785 | 16863 ft | 351 kts | 299° |
| 2026-04-28 11:42 | 64.30242 | -146.20450 | 16444 ft | 348 kts | 299° |
| 2026-04-28 11:42 | 64.31552 | -146.25115 | 16028 ft | 345 kts | 298° |
| 2026-04-28 11:42 | 64.32819 | -146.29775 | 15616 ft | 342 kts | 298° |
| 2026-04-28 11:42 | 64.34069 | -146.34424 | 15206 ft | 341 kts | 298° |
| 2026-04-28 11:43 | 64.35322 | -146.39064 | 14768 ft | 340 kts | 298° |
| 2026-04-28 11:43 | 64.36566 | -146.43627 | 14529 ft | 334 kts | 299° |
| 2026-04-28 11:43 | 64.37830 | -146.48274 | 14181 ft | 348 kts | 299° |
| 2026-04-28 11:43 | 64.39112 | -146.52987 | 13786 ft | 344 kts | 300° |
| 2026-04-28 11:44 | 64.40371 | -146.57638 | 13357 ft | 338 kts | 299° |
| 2026-04-28 11:44 | 64.41190 | -146.60665 | 13122 ft | 333 kts | 300° |
| 2026-04-28 11:44 | 64.42405 | -146.65173 | 12707 ft | 329 kts | 300° |
| 2026-04-28 11:44 | 64.44025 | -146.71217 | 12179 ft | 330 kts | 298° |
| 2026-04-28 11:45 | 64.44821 | -146.74184 | 11913 ft | 324 kts | 299° |
| 2026-04-28 11:45 | 64.46006 | -146.78605 | 11514 ft | 324 kts | 299° |
| 2026-04-28 11:45 | 64.47205 | -146.83090 | 11133 ft | 329 kts | 300° |
| 2026-04-28 11:45 | 64.48403 | -146.87572 | 10745 ft | 323 kts | 299° |
| 2026-04-28 11:46 | 64.49569 | -146.91947 | 10423 ft | 314 kts | 299° |
| 2026-04-28 11:46 | 64.50688 | -146.96151 | 10296 ft | 298 kts | 299° |
| 2026-04-28 11:46 | 64.51750 | -147.00148 | 10184 ft | 285 kts | 299° |
| 2026-04-28 11:46 | 64.52776 | -147.04029 | 10069 ft | 279 kts | 298° |
| 2026-04-28 11:47 | 64.53782 | -147.07843 | 9936 ft | 275 kts | 298° |
| 2026-04-28 11:47 | 64.54794 | -147.11687 | 9604 ft | 281 kts | 298° |
| 2026-04-28 11:47 | 64.55815 | -147.15567 | 9263 ft | 279 kts | 299° |
| 2026-04-28 11:47 | 64.56834 | -147.19434 | 8937 ft | 274 kts | 300° |
| 2026-04-28 11:48 | 64.57827 | -147.23213 | 8616 ft | 273 kts | 299° |
| 2026-04-28 11:48 | 64.58814 | -147.26983 | 8292 ft | 272 kts | 299° |
| 2026-04-28 11:48 | 64.59793 | -147.30737 | 7978 ft | 270 kts | 299° |
| 2026-04-28 11:48 | 64.60767 | -147.34473 | 7660 ft | 268 kts | 298° |
| 2026-04-28 11:49 | 64.61737 | -147.38185 | 7353 ft | 268 kts | 299° |
| 2026-04-28 11:49 | 64.62699 | -147.41893 | 7045 ft | 266 kts | 296° |
| 2026-04-28 11:49 | 64.63363 | -147.45869 | 6762 ft | 261 kts | 280° |
| 2026-04-28 11:49 | 64.63769 | -147.49942 | 6465 ft | 256 kts | 279° |
| 2026-04-28 11:50 | 64.64151 | -147.53957 | 6152 ft | 251 kts | 279° |
| 2026-04-28 11:50 | 64.64523 | -147.57893 | 5931 ft | 243 kts | 279° |
| 2026-04-28 11:50 | 64.64880 | -147.61636 | 5838 ft | 233 kts | 279° |
| 2026-04-28 11:50 | 64.65200 | -147.65330 | 5758 ft | 230 kts | 275° |
| 2026-04-28 11:51 | 64.65397 | -147.69052 | 5529 ft | 231 kts | 273° |
| 2026-04-28 11:51 | 64.65554 | -147.72745 | 5278 ft | 226 kts | 272° |
| 2026-04-28 11:51 | 64.65701 | -147.76381 | 5036 ft | 226 kts | 272° |
| 2026-04-28 11:51 | 64.65849 | -147.80007 | 4794 ft | 224 kts | 272° |
| 2026-04-28 11:52 | 64.66004 | -147.83604 | 4543 ft | 220 kts | 273° |
| 2026-04-28 11:52 | 64.66158 | -147.87098 | 4321 ft | 213 kts | 273° |
| 2026-04-28 11:52 | 64.66307 | -147.90517 | 4105 ft | 212 kts | 273° |
| 2026-04-28 11:52 | 64.66453 | -147.93934 | 3888 ft | 211 kts | 273° |
| 2026-04-28 11:53 | 64.66708 | -147.97318 | 3600 ft | 213 kts | 288° |
| 2026-04-28 11:53 | 64.67422 | -148.00303 | 3322 ft | 213 kts | 309° |
| 2026-04-28 11:53 | 64.68544 | -148.02522 | 3041 ft | 209 kts | 331° |
| 2026-04-28 11:53 | 64.69857 | -148.03629 | 2761 ft | 194 kts | 351° |
| 2026-04-28 11:54 | 64.71172 | -148.03664 | 2521 ft | 185 kts | 10° |
| 2026-04-28 11:54 | 64.72360 | -148.02795 | 2297 ft | 175 kts | 28° |
| 2026-04-28 11:54 | 64.73347 | -148.01242 | 2094 ft | 167 kts | 39° |
| 2026-04-28 11:54 | 64.74236 | -147.99621 | 1920 ft | 159 kts | 39° |
| 2026-04-28 11:55 | 64.75102 | -147.98024 | 1707 ft | 160 kts | 38° |
| 2026-04-28 11:55 | 64.75992 | -147.96402 | 1545 ft | 164 kts | 38° |
| 2026-04-28 11:55 | 64.76886 | -147.94768 | 1361 ft | 162 kts | 38° |
| 2026-04-28 11:55 | 64.77751 | -147.93155 | 1127 ft | 156 kts | 39° |
| 2026-04-28 11:56 | 64.78594 | -147.91609 | 913 ft | 152 kts | 37° |
| 2026-04-28 11:56 | 64.79443 | -147.90064 | 686 ft | 153 kts | 38° |
| 2026-04-28 11:56 | 64.80284 | -147.88550 | 501 ft | 151 kts | 38° |
| 2026-04-28 11:56 | 64.81030 | -147.87179 | 443 ft | 108 kts | 39° |
| 2026-04-28 11:57 | 64.81361 | -147.86568 | 443 ft | 35 kts | 38° |
| 2026-04-28 11:57 | 64.81521 | -147.86278 | 443 ft | 18 kts | 37° |
| 2026-04-28 11:57 | 64.81604 | -147.86168 | 443 ft | 12 kts | 352° |
| 2026-04-28 11:57 | 64.81648 | -147.86256 | 443 ft | 6 kts | 301° |
| 2026-04-28 11:58 | 64.81646 | -147.86356 | 443 ft | 9 kts | 232° |
| 2026-04-28 11:58 | 64.81597 | -147.86463 | 443 ft | 10 kts | 220° |
| 2026-04-28 11:58 | 64.81538 | -147.86580 | 443 ft | 12 kts | 219° |
| 2026-04-28 11:58 | 64.81499 | -147.86697 | 443 ft | 7 kts | 260° |
| 2026-04-28 11:59 | 64.81514 | -147.86794 | 443 ft | 6 kts | 308° |
| 2026-04-28 11:59 | 64.81538 | -147.86846 | 443 ft | 6 kts | 322° |
| 2026-04-28 11:59 | 64.81577 | -147.86885 | 443 ft | 6 kts | 1° |
| 2026-04-28 11:59 | 64.81625 | -147.86862 | 443 ft | 7 kts | 14° |
| 2026-04-28 12:00 | 64.81646 | -147.86849 | 443 ft | 0 kts | 14° |